Jarvie, Canada
Current Conditions -  °F | °C
As of 7:57 PM on Sunday 23 Nov 2014 (Local Time) from CZVL Reporting Station
Light Snow Light Snow  
Wind Chill: 23°   Ceiling: 5000
Heat Index: 23°   Visibility: 9mi
Dew Point: 21°   Wind: 0mph
Humidity: 93%   Direction: NA
Pressure: 29.72"   Gusts: NA
Location:  54.45°N, 113.98°W
Report Text: CZVL 240257Z AUTO 00000KT 9SM -SN FEW044 OVC050 M05/M06 A2972 RMK SLP111
Loading
Personal Weather Stations






























Interactive Weather Map New forecast layout! Learn more

10-Day Weather Forecast

Advertisements
Track Severe Weather on mobile